createdAt,value
2018-06-28T00:00:37.592Z,2.77
2018-06-28T00:03:05.777Z,2.43
2018-06-28T00:05:34.028Z,3.00
2018-06-28T00:08:02.386Z,2.90
2018-06-28T00:10:30.651Z,2.70
2018-06-28T00:12:58.933Z,3.10
2018-06-28T00:15:27.288Z,2.70
2018-06-28T00:17:55.511Z,2.83
2018-06-28T00:20:23.889Z,2.47
2018-06-28T00:22:52.200Z,2.70
2018-06-28T00:25:20.538Z,2.60
2018-06-28T00:27:49.010Z,2.67
2018-06-28T00:30:17.433Z,2.80
2018-06-28T00:32:45.433Z,2.90
2018-06-28T00:35:13.909Z,2.83
2018-06-28T00:37:42.329Z,2.60
2018-06-28T00:40:10.873Z,2.90
2018-06-28T00:42:39.297Z,2.70
2018-06-28T00:45:07.822Z,2.80
2018-06-28T00:47:36.229Z,2.90
2018-06-28T00:50:04.703Z,2.73
2018-06-28T00:52:33.065Z,2.90
2018-06-28T00:55:01.782Z,3.27
2018-06-28T00:57:30.158Z,2.87
2018-06-28T00:59:58.535Z,3.20
2018-06-28T01:02:26.979Z,3.30
2018-06-28T01:04:55.313Z,3.20
2018-06-28T01:07:23.639Z,3.60
2018-06-28T01:09:51.916Z,2.90
2018-06-28T01:12:20.289Z,3.33
2018-06-28T01:14:48.585Z,3.13
2018-06-28T01:17:16.884Z,3.00
2018-06-28T01:19:45.397Z,3.57
2018-06-28T01:22:13.752Z,3.60
2018-06-28T01:24:42.028Z,3.10
2018-06-28T01:27:10.340Z,3.57
2018-06-28T01:29:38.670Z,3.20
2018-06-28T01:32:06.961Z,3.33
2018-06-28T01:34:35.278Z,3.33
2018-06-28T01:37:03.633Z,3.63
2018-06-28T01:39:31.943Z,3.10
2018-06-28T01:42:11.620Z,3.50
2018-06-28T01:44:39.946Z,3.60
2018-06-28T01:47:08.255Z,3.60
2018-06-28T01:49:36.840Z,3.10
2018-06-28T01:52:05.164Z,3.57
2018-06-28T01:54:33.453Z,3.50
2018-06-28T01:57:01.874Z,3.30
2018-06-28T01:59:30.779Z,3.60
2018-06-28T02:01:59.086Z,3.53
2018-06-28T02:04:27.602Z,3.57
2018-06-28T02:06:55.991Z,4.57
2018-06-28T02:09:24.386Z,4.63
2018-06-28T02:11:52.805Z,3.60
2018-06-28T02:14:21.232Z,5.03
2018-06-28T02:16:49.581Z,4.70
2018-06-28T02:19:17.994Z,4.30
2018-06-28T02:21:46.414Z,4.10
2018-06-28T02:24:14.812Z,4.00
2018-06-28T02:26:43.265Z,4.00
2018-06-28T02:29:11.670Z,4.30
2018-06-28T02:31:40.050Z,4.60
2018-06-28T02:34:08.329Z,4.53
2018-06-28T02:36:36.568Z,4.67
2018-06-28T02:39:09.197Z,4.53
2018-06-28T02:41:37.416Z,4.30
2018-06-28T02:44:05.807Z,4.87
2018-06-28T02:46:34.181Z,4.60
2018-06-28T02:49:02.386Z,4.60
2018-06-28T02:51:30.567Z,4.97
2018-06-28T02:53:58.808Z,4.83
2018-06-28T02:56:27.018Z,4.70
2018-06-28T02:58:55.342Z,4.83
2018-06-28T03:01:23.584Z,5.10
2018-06-28T03:03:51.802Z,4.70
2018-06-28T03:06:20.004Z,4.40
2018-06-28T03:08:48.316Z,4.43
2018-06-28T03:11:16.657Z,4.87
2018-06-28T03:13:44.657Z,4.73
2018-06-28T03:16:12.928Z,4.33
2018-06-28T03:18:41.147Z,4.70
2018-06-28T03:21:09.401Z,4.37
2018-06-28T03:23:37.584Z,4.67
2018-06-28T03:26:05.844Z,5.10
2018-06-28T03:31:24.702Z,4.93
2018-06-28T03:33:52.979Z,5.30
2018-06-28T03:36:21.172Z,4.70
2018-06-28T03:38:49.445Z,5.07
2018-06-28T03:41:17.690Z,5.10
2018-06-28T03:43:45.974Z,5.33
2018-06-28T03:46:14.287Z,4.87
2018-06-28T03:48:42.576Z,5.47
2018-06-28T03:51:10.883Z,6.00
2018-06-28T03:53:39.112Z,5.53
2018-06-28T03:56:07.407Z,5.03
2018-06-28T03:58:35.805Z,5.47
2018-06-28T04:01:04.072Z,5.67
2018-06-28T04:03:32.320Z,5.57
2018-06-28T04:06:00.618Z,5.03
2018-06-28T04:08:28.932Z,5.60
2018-06-28T04:10:57.253Z,5.33
2018-06-28T04:13:25.641Z,5.63
2018-06-28T04:15:54.008Z,5.50
2018-06-28T04:18:22.281Z,5.17
2018-06-28T04:20:50.572Z,5.50
2018-06-28T04:23:18.867Z,5.70
2018-06-28T04:25:47.145Z,5.67
2018-06-28T04:28:15.412Z,5.70
2018-06-28T04:30:43.689Z,5.07
2018-06-28T04:33:11.969Z,5.33
2018-06-28T04:35:40.330Z,5.50
2018-06-28T04:38:08.524Z,5.53
2018-06-28T04:40:36.667Z,4.87
2018-06-28T04:43:04.812Z,5.07
2018-06-28T04:45:33.004Z,4.40
2018-06-28T04:48:01.193Z,4.67
2018-06-28T04:50:29.340Z,4.40
2018-06-28T04:52:57.587Z,4.50
2018-06-28T04:55:25.800Z,4.57
2018-06-28T04:57:54.011Z,4.00
2018-06-28T05:00:22.155Z,3.70
2018-06-28T05:02:50.363Z,4.00
2018-06-28T05:05:18.558Z,4.00
2018-06-28T05:07:46.782Z,3.90
2018-06-28T05:10:15.044Z,3.70
2018-06-28T05:12:43.334Z,3.57
2018-06-28T05:15:11.528Z,3.90
2018-06-28T05:17:39.705Z,3.70
2018-06-28T05:20:07.866Z,3.93
2018-06-28T05:22:35.791Z,3.50
2018-06-28T05:25:04.066Z,3.87
2018-06-28T05:27:32.274Z,3.40
2018-06-28T05:30:00.834Z,3.53
2018-06-28T05:32:29.002Z,3.27
2018-06-28T05:34:57.222Z,3.50
2018-06-28T05:37:25.426Z,3.20
2018-06-28T05:39:53.605Z,3.17
2018-06-28T05:42:21.853Z,2.87
2018-06-28T05:44:50.097Z,3.10
2018-06-28T05:47:18.567Z,2.90
2018-06-28T05:49:46.851Z,2.77
2018-06-28T05:52:15.217Z,3.00
2018-06-28T05:54:43.457Z,2.60
2018-06-28T05:57:11.671Z,3.10
2018-06-28T05:59:39.853Z,2.80
2018-06-28T06:02:07.846Z,2.60
2018-06-28T06:04:36.065Z,2.80
2018-06-28T06:07:04.267Z,2.57
2018-06-28T06:09:32.624Z,2.60
2018-06-28T06:12:00.919Z,2.57
2018-06-28T06:14:29.356Z,2.70
2018-06-28T06:16:57.795Z,2.47
2018-06-28T06:19:26.060Z,2.60
2018-06-28T06:21:54.282Z,2.40
2018-06-28T06:24:22.461Z,2.70
2018-06-28T06:26:50.815Z,2.10
2018-06-28T06:29:19.042Z,2.33
2018-06-28T06:31:47.337Z,2.27
2018-06-28T06:34:15.521Z,2.03
2018-06-28T06:36:43.713Z,2.53
2018-06-28T06:39:12.280Z,2.40
2018-06-28T06:41:40.519Z,2.40
2018-06-28T06:44:08.681Z,2.40
2018-06-28T06:46:36.830Z,2.70
2018-06-28T06:49:05.189Z,2.40
2018-06-28T06:51:33.433Z,2.67
2018-06-28T06:54:01.743Z,2.67
2018-06-28T06:56:29.953Z,2.30
2018-06-28T06:58:58.191Z,2.47
2018-06-28T07:01:26.524Z,2.60
2018-06-28T07:03:54.842Z,2.53
2018-06-28T07:06:23.129Z,4.10
2018-06-28T07:08:51.378Z,2.43
2018-06-28T07:11:19.646Z,2.60
2018-06-28T07:13:47.939Z,2.47
2018-06-28T07:16:16.212Z,2.10
2018-06-28T07:18:44.520Z,3.47
2018-06-28T07:21:12.755Z,2.60
2018-06-28T07:23:41.000Z,2.50
2018-06-28T07:26:09.223Z,2.93
2018-06-28T07:28:37.551Z,2.53
2018-06-28T07:31:05.727Z,2.60
2018-06-28T07:33:33.921Z,2.60
2018-06-28T07:36:02.239Z,2.80
2018-06-28T07:38:30.421Z,2.53
2018-06-28T07:40:58.613Z,2.50
2018-06-28T07:43:26.767Z,2.40
2018-06-28T07:45:54.950Z,2.80
2018-06-28T07:48:23.140Z,2.80
2018-06-28T07:50:51.468Z,2.47
2018-06-28T07:53:19.671Z,2.60
2018-06-28T07:55:47.963Z,2.83
2018-06-28T07:58:16.139Z,2.40
2018-06-28T08:00:44.379Z,2.50
2018-06-28T08:03:12.539Z,2.60
2018-06-28T08:05:40.712Z,2.57
2018-06-28T08:08:08.952Z,2.90
2018-06-28T08:10:37.111Z,2.93
2018-06-28T08:13:05.306Z,2.50
2018-06-28T08:15:33.475Z,2.70
2018-06-28T08:18:01.647Z,2.83
2018-06-28T08:20:29.841Z,2.63
2018-06-28T08:22:58.003Z,2.30
2018-06-28T08:25:26.228Z,2.50
2018-06-28T08:27:54.435Z,2.80
2018-06-28T08:30:22.702Z,2.30
2018-06-28T08:32:50.894Z,2.50
2018-06-28T08:35:19.060Z,2.70
2018-06-28T08:37:47.388Z,2.60
2018-06-28T08:40:15.593Z,2.77
2018-06-28T08:42:43.767Z,2.90
2018-06-28T08:45:12.020Z,2.57
2018-06-28T08:47:40.180Z,2.17
2018-06-28T08:50:08.408Z,2.70
2018-06-28T08:52:36.578Z,2.60
2018-06-28T08:55:05.474Z,2.70
2018-06-28T08:57:33.695Z,2.83
2018-06-28T09:00:01.832Z,2.67
2018-06-28T09:02:29.999Z,2.33
2018-06-28T09:04:57.941Z,2.33
2018-06-28T09:07:26.132Z,2.50
2018-06-28T09:09:54.498Z,2.60
2018-06-28T09:12:22.670Z,2.37
2018-06-28T09:14:51.412Z,2.67
2018-06-28T09:17:19.640Z,2.60
2018-06-28T09:19:47.864Z,2.80
2018-06-28T09:22:16.090Z,2.80
2018-06-28T09:24:44.347Z,2.50
2018-06-28T09:27:12.560Z,2.70
2018-06-28T09:29:40.723Z,2.73
2018-06-28T09:32:08.899Z,2.30
2018-06-28T09:34:37.091Z,2.80
2018-06-28T09:37:05.479Z,2.53
2018-06-28T09:39:33.643Z,2.60
2018-06-28T09:42:01.976Z,2.33
2018-06-28T09:44:30.145Z,2.90
2018-06-28T09:46:58.321Z,3.07
2018-06-28T09:49:26.503Z,2.77
2018-06-28T09:51:54.639Z,2.60
2018-06-28T09:54:22.819Z,2.80
2018-06-28T09:56:50.993Z,2.70
2018-06-28T09:59:19.304Z,2.90
2018-06-28T10:01:47.496Z,3.20
2018-06-28T10:04:15.944Z,2.90
2018-06-28T10:06:44.159Z,3.00
2018-06-28T10:09:12.332Z,2.90
2018-06-28T10:11:40.564Z,2.83
2018-06-28T10:14:08.901Z,3.03
2018-06-28T10:16:37.064Z,3.30
2018-06-28T10:19:05.455Z,3.00
2018-06-28T10:21:33.741Z,3.20
2018-06-28T10:24:02.052Z,2.80
2018-06-28T10:26:35.041Z,2.90
2018-06-28T10:29:03.250Z,2.90
2018-06-28T10:31:31.449Z,2.97
2018-06-28T10:33:59.630Z,3.00
2018-06-28T10:36:28.115Z,2.73
2018-06-28T10:38:56.403Z,3.03
2018-06-28T10:41:24.764Z,2.87
2018-06-28T10:43:53.065Z,2.83
2018-06-28T10:46:21.259Z,2.90
2018-06-28T10:48:49.487Z,2.73
2018-06-28T10:51:18.408Z,3.03
2018-06-28T10:53:46.588Z,2.80
2018-06-28T10:56:14.802Z,3.30
2018-06-28T10:58:43.063Z,2.90
2018-06-28T11:01:11.383Z,2.77
2018-06-28T11:03:39.704Z,2.70
2018-06-28T11:06:07.915Z,3.00
2018-06-28T11:08:36.182Z,3.00
2018-06-28T11:11:04.451Z,2.77
2018-06-28T11:13:32.694Z,2.97
2018-06-28T11:16:00.965Z,3.20
2018-06-28T11:18:29.460Z,3.20
2018-06-28T11:20:57.618Z,3.30
2018-06-28T11:23:27.907Z,3.07
2018-06-28T11:25:59.844Z,3.10
2018-06-28T11:28:28.105Z,3.17
2018-06-28T11:30:56.298Z,2.80
2018-06-28T11:33:24.559Z,3.07
2018-06-28T11:35:57.609Z,2.90
2018-06-28T11:38:25.942Z,2.70
2018-06-28T11:40:54.335Z,2.80
2018-06-28T11:43:22.506Z,2.80
2018-06-28T11:45:50.721Z,2.80
2018-06-28T11:48:18.976Z,2.77
2018-06-28T11:50:47.253Z,2.93
2018-06-28T11:53:15.586Z,2.93
2018-06-28T11:55:43.783Z,2.97
2018-06-28T11:58:11.959Z,2.90
2018-06-28T12:00:40.238Z,2.70
2018-06-28T12:03:08.427Z,2.30
2018-06-28T12:05:36.745Z,2.77
2018-06-28T12:08:05.070Z,2.60
2018-06-28T12:10:33.355Z,2.80
2018-06-28T12:13:01.559Z,2.73
2018-06-28T12:15:29.666Z,2.50
2018-06-28T12:17:57.686Z,2.27
2018-06-28T12:20:25.885Z,2.57
2018-06-28T12:22:54.084Z,2.50
2018-06-28T12:25:22.316Z,2.33
2018-06-28T12:27:50.529Z,2.17
2018-06-28T12:30:18.681Z,2.70
2018-06-28T12:32:46.885Z,2.50
2018-06-28T12:35:15.079Z,2.20
2018-06-28T12:37:43.252Z,2.33
2018-06-28T12:40:11.428Z,2.53
2018-06-28T12:42:39.680Z,2.30
2018-06-28T12:45:07.866Z,2.20
2018-06-28T12:47:52.080Z,2.87
2018-06-28T12:50:20.777Z,2.27
2018-06-28T12:52:53.698Z,3.57
2018-06-28T12:55:22.349Z,2.30
2018-06-28T12:57:51.000Z,2.60
2018-06-28T13:00:19.467Z,2.10
2018-06-28T13:02:47.684Z,2.40
2018-06-28T13:05:16.631Z,2.00
2018-06-28T13:07:44.875Z,2.37
2018-06-28T13:10:14.444Z,2.53
2018-06-28T13:12:42.620Z,2.30
2018-06-28T13:15:11.995Z,2.40
2018-06-28T13:17:40.655Z,2.17
2018-06-28T13:20:09.416Z,2.50
2018-06-28T13:22:37.933Z,2.43
2018-06-28T13:25:06.989Z,2.20
2018-06-28T13:27:35.183Z,2.37
2018-06-28T13:30:04.388Z,2.20
2018-06-28T13:32:32.584Z,2.10
2018-06-28T13:35:00.783Z,2.50
2018-06-28T13:37:28.961Z,2.20
2018-06-28T13:39:57.139Z,2.20
2018-06-28T13:42:25.348Z,2.43
2018-06-28T13:44:53.759Z,2.40
2018-06-28T13:47:22.049Z,2.50
2018-06-28T13:49:50.332Z,2.60
2018-06-28T13:52:18.576Z,2.50
2018-06-28T13:54:46.736Z,2.50
2018-06-28T13:57:14.915Z,2.20
2018-06-28T13:59:43.079Z,2.40
2018-06-28T14:02:11.270Z,2.40
2018-06-28T14:04:39.426Z,2.50
2018-06-28T14:07:07.616Z,2.20
2018-06-28T14:09:35.858Z,2.33
2018-06-28T14:12:04.044Z,2.77
2018-06-28T14:14:32.214Z,2.30
2018-06-28T14:17:00.415Z,2.07
2018-06-28T14:19:28.661Z,2.50
2018-06-28T14:21:57.065Z,2.27
2018-06-28T14:24:25.306Z,2.40
2018-06-28T14:26:53.478Z,2.30
2018-06-28T14:29:21.677Z,2.03
2018-06-28T14:31:49.924Z,2.60
2018-06-28T14:34:18.099Z,2.00
2018-06-28T14:36:47.504Z,2.17
2018-06-28T14:39:15.669Z,2.23
2018-06-28T14:41:43.914Z,2.33
2018-06-28T14:44:12.061Z,2.43
2018-06-28T14:46:40.221Z,2.20
2018-06-28T14:49:08.456Z,2.40
2018-06-28T14:51:36.651Z,2.40
2018-06-28T14:54:04.836Z,2.37
2018-06-28T14:56:33.048Z,2.50
2018-06-28T14:59:01.246Z,2.60
2018-06-28T15:01:29.455Z,2.33
2018-06-28T15:03:57.829Z,2.60
2018-06-28T15:06:25.997Z,2.40
2018-06-28T15:08:54.181Z,2.80
2018-06-28T15:11:22.452Z,2.50
2018-06-28T15:13:50.712Z,2.37
2018-06-28T15:16:18.900Z,2.70
2018-06-28T15:18:47.308Z,2.47
2018-06-28T15:21:15.541Z,2.50
2018-06-28T15:23:43.731Z,2.57
2018-06-28T15:26:11.944Z,2.60
2018-06-28T15:28:40.305Z,2.23
2018-06-28T15:31:08.781Z,2.80
2018-06-28T15:33:37.008Z,2.40
2018-06-28T15:36:05.210Z,2.50
2018-06-28T15:38:33.482Z,2.30
2018-06-28T15:41:01.680Z,2.40
2018-06-28T15:43:29.936Z,2.30
2018-06-28T15:45:58.168Z,2.10
2018-06-28T15:48:26.346Z,2.60
2018-06-28T15:50:54.526Z,2.40
2018-06-28T15:53:22.738Z,2.50
2018-06-28T15:55:50.983Z,2.70
2018-06-28T15:58:19.187Z,2.50
2018-06-28T16:00:47.375Z,2.50
2018-06-28T16:03:15.635Z,2.57
2018-06-28T16:05:43.812Z,2.40
2018-06-28T16:08:12.031Z,2.63
2018-06-28T16:10:40.314Z,2.60
2018-06-28T16:13:08.489Z,2.50
2018-06-28T16:15:36.797Z,2.40
2018-06-28T16:18:05.077Z,2.40
2018-06-28T16:20:33.275Z,2.30
2018-06-28T16:23:01.914Z,2.47
2018-06-28T16:25:30.112Z,2.40
2018-06-28T16:27:58.295Z,2.60
2018-06-28T16:30:26.567Z,2.40
2018-06-28T16:32:54.742Z,2.50
2018-06-28T16:35:22.940Z,2.43
2018-06-28T16:37:51.247Z,2.50
2018-06-28T16:40:19.423Z,2.40
2018-06-28T16:42:47.587Z,2.27
2018-06-28T16:45:15.816Z,2.70
2018-06-28T16:47:44.675Z,2.73
2018-06-28T16:50:12.943Z,2.40
2018-06-28T16:52:41.148Z,2.40
2018-06-28T16:55:09.376Z,2.30
2018-06-28T16:57:37.598Z,3.63
2018-06-28T17:00:06.474Z,2.20
2018-06-28T17:02:34.721Z,2.60
2018-06-28T17:05:02.928Z,2.40
2018-06-28T17:07:31.083Z,2.60
2018-06-28T17:09:59.387Z,2.40
2018-06-28T17:12:27.627Z,2.60
2018-06-28T17:14:55.817Z,2.60
2018-06-28T17:17:24.053Z,2.60
2018-06-28T17:19:52.336Z,2.50
2018-06-28T17:22:20.541Z,2.40
2018-06-28T17:24:48.843Z,2.43
2018-06-28T17:27:17.029Z,2.60
2018-06-28T17:29:46.278Z,2.30
2018-06-28T17:32:14.495Z,2.47
2018-06-28T17:34:42.722Z,2.30
2018-06-28T17:37:10.942Z,2.60
2018-06-28T17:39:39.280Z,2.37
2018-06-28T17:42:07.545Z,2.43
2018-06-28T17:44:35.740Z,2.40
2018-06-28T17:47:03.940Z,2.40
2018-06-28T17:49:32.145Z,2.43
2018-06-28T17:52:00.352Z,2.60
2018-06-28T17:54:28.597Z,2.53
2018-06-28T17:56:57.047Z,2.60
2018-06-28T17:59:25.249Z,2.53
2018-06-28T18:01:53.615Z,2.70
2018-06-28T18:04:21.819Z,3.03
2018-06-28T18:06:50.051Z,2.50
2018-06-28T18:09:18.228Z,2.93
2018-06-28T18:11:47.004Z,2.70
2018-06-28T18:14:15.240Z,2.43
2018-06-28T18:16:43.436Z,2.43
2018-06-28T18:19:11.644Z,2.40
2018-06-28T18:21:39.839Z,2.70
2018-06-28T18:24:08.152Z,2.53
2018-06-28T18:26:36.367Z,2.30
2018-06-28T18:29:04.638Z,2.40
2018-06-28T18:31:32.883Z,2.60
2018-06-28T18:34:01.200Z,2.50
2018-06-28T18:36:29.375Z,2.30
2018-06-28T18:38:57.737Z,2.40
2018-06-28T18:41:26.009Z,2.30
2018-06-28T18:43:54.355Z,2.50
2018-06-28T18:46:22.531Z,2.60
2018-06-28T18:48:50.747Z,2.50
2018-06-28T18:51:19.452Z,2.33
2018-06-28T18:53:47.660Z,2.37
2018-06-28T18:56:15.876Z,2.50
2018-06-28T18:58:44.097Z,2.40
2018-06-28T19:01:12.300Z,2.50
2018-06-28T19:03:40.511Z,2.53
2018-06-28T19:06:08.727Z,2.70
2018-06-28T19:08:37.049Z,2.40
2018-06-28T19:11:05.177Z,2.80
2018-06-28T19:13:37.618Z,2.40
2018-06-28T19:16:11.723Z,2.40
2018-06-28T19:18:39.887Z,2.37
2018-06-28T19:21:13.552Z,2.53
2018-06-28T19:23:47.218Z,2.33
2018-06-28T19:26:16.261Z,2.53
2018-06-28T19:28:44.543Z,3.17
2018-06-28T19:31:18.139Z,2.50
2018-06-28T19:33:46.372Z,2.93
2018-06-28T19:36:14.573Z,2.60
2018-06-28T19:38:48.240Z,2.60
2018-06-28T19:41:21.871Z,2.50
2018-06-28T19:43:50.087Z,2.40
2018-06-28T19:46:18.312Z,2.67
2018-06-28T19:48:46.645Z,2.60
2018-06-28T19:52:18.757Z,2.70
2018-06-28T19:54:46.946Z,2.50
2018-06-28T19:57:15.134Z,2.67
2018-06-28T19:59:47.147Z,2.53
2018-06-28T20:02:21.654Z,2.50
2018-06-28T20:04:49.912Z,2.70
2018-06-28T20:07:18.146Z,2.90
2018-06-28T20:09:46.339Z,2.57
2018-06-28T20:12:19.976Z,2.30
2018-06-28T20:14:53.555Z,2.50
2018-06-28T20:17:27.228Z,2.73
2018-06-28T20:20:00.879Z,2.40
2018-06-28T20:22:29.087Z,2.43
2018-06-28T20:24:57.273Z,2.50
2018-06-28T20:27:30.783Z,2.40
2018-06-28T20:30:04.444Z,2.37
2018-06-28T20:32:38.183Z,2.37
2018-06-28T20:35:06.356Z,2.90
2018-06-28T20:37:34.618Z,2.50
2018-06-28T20:40:02.895Z,2.80
2018-06-28T20:42:36.332Z,2.40
2018-06-28T20:45:04.708Z,2.77
2018-06-28T20:47:32.997Z,2.60
2018-06-28T20:50:28.408Z,3.00
2018-06-28T20:52:57.653Z,2.87
2018-06-28T20:55:35.715Z,3.03
2018-06-28T20:58:03.979Z,2.80
2018-06-28T21:00:34.311Z,2.90
2018-06-28T21:03:14.877Z,2.90
2018-06-28T21:05:43.127Z,3.00
2018-06-28T21:08:13.289Z,3.03
2018-06-28T21:13:38.663Z,3.60
2018-06-28T21:16:07.884Z,3.50
2018-06-28T21:18:36.400Z,3.30
2018-06-28T21:21:04.650Z,3.10
2018-06-28T21:23:32.900Z,3.17
2018-06-28T21:26:01.087Z,3.50
2018-06-28T21:28:29.329Z,3.10
2018-06-28T21:30:57.635Z,3.47
2018-06-28T21:33:25.648Z,3.60
2018-06-28T21:35:53.858Z,3.13
2018-06-28T21:38:22.154Z,3.70
2018-06-28T21:40:50.475Z,3.30
2018-06-28T21:43:24.596Z,3.53
2018-06-28T21:45:52.831Z,3.33
2018-06-28T21:48:30.785Z,3.70
2018-06-28T21:51:11.579Z,3.57
2018-06-28T21:53:39.848Z,3.20
2018-06-28T21:56:08.079Z,3.00
2018-06-28T21:58:36.316Z,3.30
2018-06-28T22:01:04.639Z,3.40
2018-06-28T22:03:32.824Z,3.13
2018-06-28T22:06:01.068Z,3.47
2018-06-28T22:08:29.240Z,3.27
2018-06-28T22:10:57.584Z,3.40
2018-06-28T22:13:25.857Z,3.20
2018-06-28T22:15:54.075Z,3.53
2018-06-28T22:18:22.342Z,3.43
2018-06-28T22:20:50.534Z,3.20
2018-06-28T22:23:18.975Z,3.70
2018-06-28T22:25:53.808Z,3.33
2018-06-28T22:28:22.007Z,3.40
2018-06-28T22:30:50.184Z,3.17
2018-06-28T22:33:18.436Z,3.63
2018-06-28T22:35:46.691Z,3.67
2018-06-28T22:38:14.897Z,3.40
2018-06-28T22:40:43.132Z,3.40
2018-06-28T22:43:11.440Z,4.33
2018-06-28T22:45:39.645Z,3.80
2018-06-28T22:48:07.951Z,3.43
2018-06-28T22:50:37.019Z,3.27
2018-06-28T22:53:05.223Z,3.20
2018-06-28T22:55:33.418Z,3.27
2018-06-28T22:58:01.642Z,3.60
2018-06-28T23:00:30.712Z,3.30
2018-06-28T23:02:58.982Z,3.27
2018-06-28T23:05:27.204Z,3.77
2018-06-28T23:07:55.395Z,3.60
2018-06-28T23:10:23.758Z,3.57
2018-06-28T23:12:52.001Z,3.20
2018-06-28T23:15:20.205Z,3.90
2018-06-28T23:17:48.419Z,3.50
2018-06-28T23:20:16.686Z,3.87
2018-06-28T23:22:46.284Z,3.83
2018-06-28T23:25:28.272Z,3.20
2018-06-28T23:27:56.484Z,3.60
2018-06-28T23:30:24.676Z,3.20
2018-06-28T23:32:52.928Z,3.63
2018-06-28T23:35:21.123Z,3.50
2018-06-28T23:37:49.368Z,3.43
2018-06-28T23:43:32.656Z,3.67
2018-06-28T23:46:00.919Z,3.83
2018-06-28T23:48:29.762Z,3.30
2018-06-28T23:50:57.955Z,3.43
2018-06-28T23:53:26.153Z,3.77
